sensor_id;sensor_type;location;lat;lon;timestamp;P1;durP1;ratioP1;P2;durP2;ratioP2
35917;SDS011;22011;59.912;30.300;2023-07-29T00:02:06;5.75;;;3.10;;
35917;SDS011;22011;59.912;30.300;2023-07-29T00:04:34;5.35;;;2.30;;
35917;SDS011;22011;59.912;30.300;2023-07-29T00:07:03;6.82;;;2.60;;
35917;SDS011;22011;59.912;30.300;2023-07-29T00:09:31;5.00;;;2.50;;
35917;SDS011;22011;59.912;30.300;2023-07-29T00:11:59;7.00;;;2.30;;
35917;SDS011;22011;59.912;30.300;2023-07-29T00:14:26;4.13;;;2.25;;
35917;SDS011;22011;59.912;30.300;2023-07-29T00:16:54;4.35;;;2.22;;
35917;SDS011;22011;59.912;30.300;2023-07-29T00:19:22;8.63;;;2.80;;
35917;SDS011;22011;59.912;30.300;2023-07-29T00:21:50;4.40;;;1.80;;
35917;SDS011;22011;59.912;30.300;2023-07-29T00:24:19;2.85;;;2.03;;
35917;SDS011;22011;59.912;30.300;2023-07-29T00:26:47;4.82;;;1.67;;
35917;SDS011;22011;59.912;30.300;2023-07-29T00:29:14;4.97;;;1.90;;
35917;SDS011;22011;59.912;30.300;2023-07-29T00:31:42;7.45;;;2.60;;
35917;SDS011;22011;59.912;30.300;2023-07-29T00:34:10;5.57;;;2.50;;
35917;SDS011;22011;59.912;30.300;2023-07-29T00:36:43;5.78;;;2.65;;
35917;SDS011;22011;59.912;30.300;2023-07-29T00:39:12;7.47;;;3.20;;
35917;SDS011;22011;59.912;30.300;2023-07-29T00:41:41;7.45;;;2.90;;
35917;SDS011;22011;59.912;30.300;2023-07-29T00:44:08;14.43;;;4.50;;
35917;SDS011;22011;59.912;30.300;2023-07-29T00:46:36;9.80;;;4.88;;
35917;SDS011;22011;59.912;30.300;2023-07-29T00:49:05;9.45;;;4.80;;
35917;SDS011;22011;59.912;30.300;2023-07-29T00:51:33;15.80;;;6.43;;
35917;SDS011;22011;59.912;30.300;2023-07-29T00:54:00;16.42;;;7.50;;
35917;SDS011;22011;59.912;30.300;2023-07-29T00:56:28;16.92;;;8.63;;
35917;SDS011;22011;59.912;30.300;2023-07-29T00:58:57;24.67;;;8.85;;
35917;SDS011;22011;59.912;30.300;2023-07-29T01:01:27;22.23;;;9.45;;
35917;SDS011;22011;59.912;30.300;2023-07-29T01:03:55;19.13;;;8.70;;
35917;SDS011;22011;59.912;30.300;2023-07-29T01:06:23;21.48;;;9.15;;
35917;SDS011;22011;59.912;30.300;2023-07-29T01:08:59;24.88;;;8.00;;
35917;SDS011;22011;59.912;30.300;2023-07-29T01:11:33;24.42;;;9.27;;
35917;SDS011;22011;59.912;30.300;2023-07-29T01:14:13;23.60;;;8.77;;
35917;SDS011;22011;59.912;30.300;2023-07-29T01:16:51;16.17;;;7.57;;
35917;SDS011;22011;59.912;30.300;2023-07-29T01:19:26;14.88;;;6.72;;
35917;SDS011;22011;59.912;30.300;2023-07-29T01:22:09;10.73;;;5.38;;
35917;SDS011;22011;59.912;30.300;2023-07-29T01:24:39;12.48;;;5.70;;
35917;SDS011;22011;59.912;30.300;2023-07-29T01:27:07;16.63;;;6.50;;
35917;SDS011;22011;59.912;30.300;2023-07-29T01:29:34;13.30;;;6.28;;
35917;SDS011;22011;59.912;30.300;2023-07-29T01:32:04;13.38;;;6.03;;
35917;SDS011;22011;59.912;30.300;2023-07-29T01:34:39;13.55;;;6.80;;
35917;SDS011;22011;59.912;30.300;2023-07-29T01:37:12;14.73;;;6.70;;
35917;SDS011;22011;59.912;30.300;2023-07-29T01:39:48;15.15;;;6.50;;
35917;SDS011;22011;59.912;30.300;2023-07-29T01:42:18;11.13;;;5.82;;
35917;SDS011;22011;59.912;30.300;2023-07-29T01:44:46;10.73;;;6.13;;
35917;SDS011;22011;59.912;30.300;2023-07-29T01:47:13;12.77;;;5.20;;
35917;SDS011;22011;59.912;30.300;2023-07-29T01:49:41;9.55;;;5.15;;
35917;SDS011;22011;59.912;30.300;2023-07-29T01:52:09;7.88;;;4.43;;
35917;SDS011;22011;59.912;30.300;2023-07-29T01:54:37;6.78;;;3.17;;
35917;SDS011;22011;59.912;30.300;2023-07-29T01:57:06;7.28;;;2.60;;
35917;SDS011;22011;59.912;30.300;2023-07-29T01:59:33;7.13;;;2.88;;
35917;SDS011;22011;59.912;30.300;2023-07-29T02:02:01;5.05;;;2.40;;
35917;SDS011;22011;59.912;30.300;2023-07-29T02:04:29;3.53;;;2.17;;
35917;SDS011;22011;59.912;30.300;2023-07-29T02:06:57;4.25;;;2.25;;
35917;SDS011;22011;59.912;30.300;2023-07-29T02:09:24;5.53;;;2.33;;
35917;SDS011;22011;59.912;30.300;2023-07-29T02:11:53;4.07;;;1.65;;
35917;SDS011;22011;59.912;30.300;2023-07-29T02:14:22;4.00;;;2.25;;
35917;SDS011;22011;59.912;30.300;2023-07-29T02:16:50;10.05;;;2.80;;
35917;SDS011;22011;59.912;30.300;2023-07-29T02:19:18;5.53;;;2.65;;
35917;SDS011;22011;59.912;30.300;2023-07-29T02:21:45;3.85;;;2.38;;
35917;SDS011;22011;59.912;30.300;2023-07-29T02:24:13;4.78;;;2.45;;
35917;SDS011;22011;59.912;30.300;2023-07-29T02:26:41;4.15;;;2.50;;
35917;SDS011;22011;59.912;30.300;2023-07-29T02:29:09;5.30;;;2.13;;
35917;SDS011;22011;59.912;30.300;2023-07-29T02:31:40;6.03;;;2.30;;
35917;SDS011;22011;59.912;30.300;2023-07-29T02:34:10;4.72;;;2.67;;
35917;SDS011;22011;59.912;30.300;2023-07-29T02:36:37;5.97;;;2.17;;
35917;SDS011;22011;59.912;30.300;2023-07-29T02:39:06;6.65;;;2.20;;
35917;SDS011;22011;59.912;30.300;2023-07-29T02:41:34;3.72;;;2.65;;
35917;SDS011;22011;59.912;30.300;2023-07-29T02:44:02;6.95;;;2.90;;
35917;SDS011;22011;59.912;30.300;2023-07-29T02:46:29;5.88;;;2.97;;
35917;SDS011;22011;59.912;30.300;2023-07-29T02:48:58;5.72;;;2.65;;
35917;SDS011;22011;59.912;30.300;2023-07-29T02:51:26;9.95;;;2.65;;
35917;SDS011;22011;59.912;30.300;2023-07-29T02:53:54;5.60;;;2.97;;
35917;SDS011;22011;59.912;30.300;2023-07-29T02:56:21;5.85;;;3.10;;
35917;SDS011;22011;59.912;30.300;2023-07-29T02:58:49;6.82;;;2.85;;
35917;SDS011;22011;59.912;30.300;2023-07-29T03:01:18;3.85;;;2.30;;
35917;SDS011;22011;59.912;30.300;2023-07-29T03:03:46;3.83;;;2.15;;
35917;SDS011;22011;59.912;30.300;2023-07-29T03:06:15;5.10;;;2.22;;
35917;SDS011;22011;59.912;30.300;2023-07-29T03:08:43;4.65;;;2.20;;
35917;SDS011;22011;59.912;30.300;2023-07-29T03:11:11;5.90;;;2.30;;
35917;SDS011;22011;59.912;30.300;2023-07-29T03:13:41;4.63;;;2.55;;
35917;SDS011;22011;59.912;30.300;2023-07-29T03:16:10;5.82;;;3.22;;
35917;SDS011;22011;59.912;30.300;2023-07-29T03:18:39;6.07;;;3.30;;
35917;SDS011;22011;59.912;30.300;2023-07-29T03:21:08;4.20;;;3.33;;
35917;SDS011;22011;59.912;30.300;2023-07-29T03:23:38;10.32;;;3.80;;
35917;SDS011;22011;59.912;30.300;2023-07-29T03:26:06;5.80;;;3.30;;
35917;SDS011;22011;59.912;30.300;2023-07-29T03:28:37;5.15;;;3.22;;
35917;SDS011;22011;59.912;30.300;2023-07-29T03:31:06;6.80;;;3.25;;
35917;SDS011;22011;59.912;30.300;2023-07-29T03:33:34;4.32;;;2.90;;
35917;SDS011;22011;59.912;30.300;2023-07-29T03:36:02;7.20;;;3.13;;
35917;SDS011;22011;59.912;30.300;2023-07-29T03:38:29;4.68;;;2.95;;
35917;SDS011;22011;59.912;30.300;2023-07-29T03:41:00;9.93;;;3.53;;
35917;SDS011;22011;59.912;30.300;2023-07-29T03:45:58;6.97;;;2.97;;
35917;SDS011;22011;59.912;30.300;2023-07-29T03:48:26;4.03;;;3.08;;
35917;SDS011;22011;59.912;30.300;2023-07-29T03:50:53;5.55;;;2.70;;
35917;SDS011;22011;59.912;30.300;2023-07-29T03:53:21;5.05;;;3.38;;
35917;SDS011;22011;59.912;30.300;2023-07-29T03:55:49;6.10;;;2.85;;
35917;SDS011;22011;59.912;30.300;2023-07-29T03:58:18;5.53;;;3.08;;
35917;SDS011;22011;59.912;30.300;2023-07-29T04:00:46;7.15;;;3.80;;
35917;SDS011;22011;59.912;30.300;2023-07-29T04:03:16;7.28;;;3.30;;
35917;SDS011;22011;59.912;30.300;2023-07-29T04:05:44;14.57;;;3.70;;
35917;SDS011;22011;59.912;30.300;2023-07-29T04:08:12;6.35;;;4.35;;
35917;SDS011;22011;59.912;30.300;2023-07-29T04:10:39;5.88;;;4.00;;
35917;SDS011;22011;59.912;30.300;2023-07-29T04:13:07;5.82;;;4.20;;
35917;SDS011;22011;59.912;30.300;2023-07-29T04:15:37;9.05;;;5.60;;
35917;SDS011;22011;59.912;30.300;2023-07-29T04:18:05;6.93;;;4.97;;
35917;SDS011;22011;59.912;30.300;2023-07-29T04:20:33;5.30;;;4.07;;
35917;SDS011;22011;59.912;30.300;2023-07-29T04:23:00;5.10;;;3.13;;
35917;SDS011;22011;59.912;30.300;2023-07-29T04:25:28;5.80;;;3.47;;
35917;SDS011;22011;59.912;30.300;2023-07-29T04:27:56;7.10;;;3.42;;
35917;SDS011;22011;59.912;30.300;2023-07-29T04:30:24;3.53;;;2.38;;
35917;SDS011;22011;59.912;30.300;2023-07-29T04:32:53;3.33;;;2.38;;
35917;SDS011;22011;59.912;30.300;2023-07-29T04:35:21;4.40;;;2.23;;
35917;SDS011;22011;59.912;30.300;2023-07-29T04:37:49;5.88;;;2.75;;
35917;SDS011;22011;59.912;30.300;2023-07-29T04:40:16;4.05;;;2.90;;
35917;SDS011;22011;59.912;30.300;2023-07-29T04:42:44;3.95;;;2.15;;
35917;SDS011;22011;59.912;30.300;2023-07-29T04:45:12;6.72;;;2.85;;
35917;SDS011;22011;59.912;30.300;2023-07-29T04:47:39;5.43;;;2.72;;
35917;SDS011;22011;59.912;30.300;2023-07-29T04:50:09;5.57;;;2.60;;
35917;SDS011;22011;59.912;30.300;2023-07-29T04:52:37;3.55;;;2.72;;
35917;SDS011;22011;59.912;30.300;2023-07-29T04:55:05;7.35;;;2.80;;
35917;SDS011;22011;59.912;30.300;2023-07-29T04:57:33;6.07;;;2.40;;
35917;SDS011;22011;59.912;30.300;2023-07-29T05:00:02;6.03;;;2.30;;
35917;SDS011;22011;59.912;30.300;2023-07-29T05:02:30;5.60;;;2.17;;
35917;SDS011;22011;59.912;30.300;2023-07-29T05:04:58;4.03;;;2.55;;
35917;SDS011;22011;59.912;30.300;2023-07-29T05:07:27;4.70;;;2.03;;
35917;SDS011;22011;59.912;30.300;2023-07-29T05:09:54;4.80;;;3.20;;
35917;SDS011;22011;59.912;30.300;2023-07-29T05:12:22;5.90;;;2.20;;
35917;SDS011;22011;59.912;30.300;2023-07-29T05:14:50;4.45;;;2.33;;
35917;SDS011;22011;59.912;30.300;2023-07-29T05:17:17;3.15;;;2.08;;
35917;SDS011;22011;59.912;30.300;2023-07-29T05:19:45;6.63;;;2.40;;
35917;SDS011;22011;59.912;30.300;2023-07-29T05:22:13;5.30;;;2.33;;
35917;SDS011;22011;59.912;30.300;2023-07-29T05:24:42;6.55;;;4.13;;
35917;SDS011;22011;59.912;30.300;2023-07-29T05:27:10;5.17;;;2.77;;
35917;SDS011;22011;59.912;30.300;2023-07-29T05:29:37;6.75;;;2.47;;
35917;SDS011;22011;59.912;30.300;2023-07-29T05:32:05;5.47;;;2.38;;
35917;SDS011;22011;59.912;30.300;2023-07-29T05:34:33;3.47;;;2.10;;
35917;SDS011;22011;59.912;30.300;2023-07-29T05:37:01;3.47;;;2.00;;
35917;SDS011;22011;59.912;30.300;2023-07-29T05:39:29;3.50;;;2.20;;
35917;SDS011;22011;59.912;30.300;2023-07-29T05:41:59;6.40;;;2.15;;
35917;SDS011;22011;59.912;30.300;2023-07-29T05:44:28;4.18;;;2.45;;
35917;SDS011;22011;59.912;30.300;2023-07-29T05:46:56;3.67;;;2.00;;
35917;SDS011;22011;59.912;30.300;2023-07-29T05:49:24;6.25;;;2.13;;
35917;SDS011;22011;59.912;30.300;2023-07-29T05:51:51;6.75;;;2.33;;
35917;SDS011;22011;59.912;30.300;2023-07-29T05:54:19;5.43;;;2.20;;
35917;SDS011;22011;59.912;30.300;2023-07-29T05:56:47;5.15;;;2.40;;
35917;SDS011;22011;59.912;30.300;2023-07-29T05:59:16;4.03;;;2.42;;
35917;SDS011;22011;59.912;30.300;2023-07-29T06:01:44;7.55;;;2.55;;
35917;SDS011;22011;59.912;30.300;2023-07-29T06:04:12;14.15;;;2.92;;
35917;SDS011;22011;59.912;30.300;2023-07-29T06:06:40;4.40;;;2.05;;
35917;SDS011;22011;59.912;30.300;2023-07-29T06:09:08;10.60;;;2.05;;
35917;SDS011;22011;59.912;30.300;2023-07-29T06:11:36;4.82;;;2.17;;
35917;SDS011;22011;59.912;30.300;2023-07-29T06:14:03;2.95;;;2.38;;
35917;SDS011;22011;59.912;30.300;2023-07-29T06:16:32;2.85;;;2.10;;
35917;SDS011;22011;59.912;30.300;2023-07-29T06:19:00;3.42;;;2.10;;
35917;SDS011;22011;59.912;30.300;2023-07-29T06:21:28;5.25;;;2.50;;
35917;SDS011;22011;59.912;30.300;2023-07-29T06:23:56;4.45;;;2.55;;
35917;SDS011;22011;59.912;30.300;2023-07-29T06:26:23;3.97;;;2.45;;
35917;SDS011;22011;59.912;30.300;2023-07-29T06:28:51;5.45;;;2.25;;
35917;SDS011;22011;59.912;30.300;2023-07-29T06:31:19;2.95;;;1.98;;
35917;SDS011;22011;59.912;30.300;2023-07-29T06:33:48;7.57;;;2.03;;
35917;SDS011;22011;59.912;30.300;2023-07-29T06:36:15;6.57;;;2.23;;
35917;SDS011;22011;59.912;30.300;2023-07-29T06:38:43;5.30;;;3.00;;
35917;SDS011;22011;59.912;30.300;2023-07-29T06:41:11;4.18;;;2.58;;
35917;SDS011;22011;59.912;30.300;2023-07-29T06:43:39;5.93;;;2.53;;
35917;SDS011;22011;59.912;30.300;2023-07-29T06:46:07;9.20;;;2.75;;
35917;SDS011;22011;59.912;30.300;2023-07-29T06:48:34;4.10;;;2.50;;
35917;SDS011;22011;59.912;30.300;2023-07-29T06:51:04;5.05;;;2.47;;
35917;SDS011;22011;59.912;30.300;2023-07-29T06:53:31;12.07;;;2.20;;
35917;SDS011;22011;59.912;30.300;2023-07-29T06:55:59;4.53;;;1.90;;
35917;SDS011;22011;59.912;30.300;2023-07-29T06:58:27;5.38;;;2.05;;
35917;SDS011;22011;59.912;30.300;2023-07-29T07:00:54;5.45;;;1.50;;
35917;SDS011;22011;59.912;30.300;2023-07-29T07:03:22;4.30;;;2.15;;
35917;SDS011;22011;59.912;30.300;2023-07-29T07:05:50;6.85;;;2.17;;
35917;SDS011;22011;59.912;30.300;2023-07-29T07:08:19;10.02;;;2.05;;
35917;SDS011;22011;59.912;30.300;2023-07-29T07:10:47;8.93;;;2.85;;
35917;SDS011;22011;59.912;30.300;2023-07-29T07:13:14;13.57;;;2.67;;
35917;SDS011;22011;59.912;30.300;2023-07-29T07:15:42;11.32;;;2.85;;
35917;SDS011;22011;59.912;30.300;2023-07-29T07:18:10;5.45;;;2.15;;
35917;SDS011;22011;59.912;30.300;2023-07-29T07:20:38;6.68;;;2.55;;
35917;SDS011;22011;59.912;30.300;2023-07-29T07:23:06;15.45;;;2.38;;
35917;SDS011;22011;59.912;30.300;2023-07-29T07:25:38;8.30;;;2.17;;
35917;SDS011;22011;59.912;30.300;2023-07-29T07:28:06;7.20;;;2.47;;
35917;SDS011;22011;59.912;30.300;2023-07-29T07:30:33;4.32;;;1.92;;
35917;SDS011;22011;59.912;30.300;2023-07-29T07:33:01;4.07;;;2.38;;
35917;SDS011;22011;59.912;30.300;2023-07-29T07:35:28;7.13;;;2.75;;
35917;SDS011;22011;59.912;30.300;2023-07-29T07:37:56;11.40;;;2.38;;
35917;SDS011;22011;59.912;30.300;2023-07-29T07:40:24;3.40;;;2.15;;
35917;SDS011;22011;59.912;30.300;2023-07-29T07:42:53;10.50;;;2.45;;
35917;SDS011;22011;59.912;30.300;2023-07-29T07:45:21;11.07;;;2.75;;
35917;SDS011;22011;59.912;30.300;2023-07-29T07:47:48;9.85;;;2.78;;
35917;SDS011;22011;59.912;30.300;2023-07-29T07:50:18;6.18;;;2.33;;
35917;SDS011;22011;59.912;30.300;2023-07-29T07:52:45;6.00;;;2.70;;
35917;SDS011;22011;59.912;30.300;2023-07-29T07:55:13;9.85;;;2.10;;
35917;SDS011;22011;59.912;30.300;2023-07-29T07:57:41;7.05;;;2.42;;
35917;SDS011;22011;59.912;30.300;2023-07-29T08:00:10;5.05;;;2.53;;
35917;SDS011;22011;59.912;30.300;2023-07-29T08:02:41;5.97;;;2.45;;
35917;SDS011;22011;59.912;30.300;2023-07-29T08:05:10;10.85;;;2.42;;
35917;SDS011;22011;59.912;30.300;2023-07-29T08:07:38;12.35;;;2.92;;
35917;SDS011;22011;59.912;30.300;2023-07-29T08:10:06;9.07;;;2.78;;
35917;SDS011;22011;59.912;30.300;2023-07-29T08:12:34;6.93;;;2.30;;
35917;SDS011;22011;59.912;30.300;2023-07-29T08:15:02;10.23;;;2.13;;
35917;SDS011;22011;59.912;30.300;2023-07-29T08:17:31;1.90;;;1.55;;
35917;SDS011;22011;59.912;30.300;2023-07-29T08:19:58;5.35;;;2.20;;
35917;SDS011;22011;59.912;30.300;2023-07-29T08:22:26;6.05;;;2.17;;
35917;SDS011;22011;59.912;30.300;2023-07-29T08:24:54;4.13;;;1.75;;
35917;SDS011;22011;59.912;30.300;2023-07-29T08:27:21;8.45;;;1.90;;
35917;SDS011;22011;59.912;30.300;2023-07-29T08:29:49;6.28;;;2.13;;
35917;SDS011;22011;59.912;30.300;2023-07-29T08:32:16;10.13;;;3.40;;
35917;SDS011;22011;59.912;30.300;2023-07-29T08:34:45;4.53;;;2.35;;
35917;SDS011;22011;59.912;30.300;2023-07-29T08:37:13;2.95;;;1.90;;
35917;SDS011;22011;59.912;30.300;2023-07-29T08:39:40;4.55;;;1.70;;
35917;SDS011;22011;59.912;30.300;2023-07-29T08:42:08;3.85;;;1.85;;
35917;SDS011;22011;59.912;30.300;2023-07-29T08:44:40;7.15;;;2.13;;
35917;SDS011;22011;59.912;30.300;2023-07-29T08:49:36;6.93;;;2.50;;
35917;SDS011;22011;59.912;30.300;2023-07-29T08:52:06;7.60;;;2.78;;
35917;SDS011;22011;59.912;30.300;2023-07-29T08:54:34;5.40;;;2.17;;
35917;SDS011;22011;59.912;30.300;2023-07-29T08:57:02;6.07;;;1.75;;
35917;SDS011;22011;59.912;30.300;2023-07-29T08:59:30;2.88;;;2.13;;
35917;SDS011;22011;59.912;30.300;2023-07-29T09:01:58;4.45;;;1.90;;
35917;SDS011;22011;59.912;30.300;2023-07-29T09:04:26;20.95;;;2.22;;
35917;SDS011;22011;59.912;30.300;2023-07-29T09:06:54;12.38;;;3.38;;
35917;SDS011;22011;59.912;30.300;2023-07-29T09:09:25;6.60;;;2.00;;
35917;SDS011;22011;59.912;30.300;2023-07-29T09:11:53;11.43;;;1.95;;
35917;SDS011;22011;59.912;30.300;2023-07-29T09:14:20;6.97;;;1.58;;
35917;SDS011;22011;59.912;30.300;2023-07-29T09:16:48;7.40;;;1.83;;
35917;SDS011;22011;59.912;30.300;2023-07-29T09:19:16;3.30;;;1.70;;
35917;SDS011;22011;59.912;30.300;2023-07-29T09:21:45;2.58;;;1.80;;
35917;SDS011;22011;59.912;30.300;2023-07-29T09:26:49;4.60;;;1.70;;
35917;SDS011;22011;59.912;30.300;2023-07-29T09:29:21;11.25;;;1.92;;
35917;SDS011;22011;59.912;30.300;2023-07-29T09:31:49;6.03;;;1.85;;
35917;SDS011;22011;59.912;30.300;2023-07-29T09:34:17;9.60;;;2.08;;
35917;SDS011;22011;59.912;30.300;2023-07-29T09:36:45;9.40;;;2.53;;
35917;SDS011;22011;59.912;30.300;2023-07-29T09:39:12;8.63;;;2.40;;
35917;SDS011;22011;59.912;30.300;2023-07-29T09:41:40;5.05;;;2.25;;
35917;SDS011;22011;59.912;30.300;2023-07-29T09:44:10;3.72;;;2.00;;
35917;SDS011;22011;59.912;30.300;2023-07-29T09:46:38;2.70;;;1.50;;
35917;SDS011;22011;59.912;30.300;2023-07-29T09:49:06;3.75;;;2.05;;
35917;SDS011;22011;59.912;30.300;2023-07-29T09:51:37;11.68;;;2.22;;
35917;SDS011;22011;59.912;30.300;2023-07-29T09:54:06;13.70;;;3.05;;
35917;SDS011;22011;59.912;30.300;2023-07-29T09:56:35;10.80;;;3.30;;
35917;SDS011;22011;59.912;30.300;2023-07-29T09:59:09;10.88;;;2.22;;
35917;SDS011;22011;59.912;30.300;2023-07-29T10:01:37;5.15;;;1.40;;
35917;SDS011;22011;59.912;30.300;2023-07-29T10:04:05;13.30;;;2.70;;
35917;SDS011;22011;59.912;30.300;2023-07-29T10:06:33;15.70;;;2.38;;
35917;SDS011;22011;59.912;30.300;2023-07-29T10:09:01;7.03;;;2.05;;
35917;SDS011;22011;59.912;30.300;2023-07-29T10:11:29;14.63;;;2.55;;
35917;SDS011;22011;59.912;30.300;2023-07-29T10:13:58;4.75;;;1.95;;
35917;SDS011;22011;59.912;30.300;2023-07-29T10:16:28;3.00;;;1.92;;
35917;SDS011;22011;59.912;30.300;2023-07-29T10:18:56;9.80;;;2.27;;
35917;SDS011;22011;59.912;30.300;2023-07-29T10:21:24;24.00;;;3.25;;
35917;SDS011;22011;59.912;30.300;2023-07-29T10:23:53;4.35;;;2.75;;
35917;SDS011;22011;59.912;30.300;2023-07-29T10:26:27;6.63;;;2.30;;
35917;SDS011;22011;59.912;30.300;2023-07-29T10:28:59;7.38;;;2.60;;
35917;SDS011;22011;59.912;30.300;2023-07-29T10:31:32;4.82;;;2.00;;
35917;SDS011;22011;59.912;30.300;2023-07-29T10:34:01;6.72;;;2.58;;
35917;SDS011;22011;59.912;30.300;2023-07-29T10:36:29;6.97;;;2.85;;
35917;SDS011;22011;59.912;30.300;2023-07-29T10:38:57;6.72;;;2.83;;
35917;SDS011;22011;59.912;30.300;2023-07-29T10:41:28;8.35;;;2.90;;
35917;SDS011;22011;59.912;30.300;2023-07-29T10:47:18;5.45;;;2.70;;
35917;SDS011;22011;59.912;30.300;2023-07-29T10:49:49;3.85;;;2.25;;
35917;SDS011;22011;59.912;30.300;2023-07-29T10:52:27;4.20;;;2.10;;
35917;SDS011;22011;59.912;30.300;2023-07-29T10:54:56;8.57;;;2.60;;
35917;SDS011;22011;59.912;30.300;2023-07-29T10:57:32;6.53;;;1.95;;
35917;SDS011;22011;59.912;30.300;2023-07-29T11:00:00;11.43;;;2.33;;
35917;SDS011;22011;59.912;30.300;2023-07-29T11:02:30;3.78;;;2.20;;
35917;SDS011;22011;59.912;30.300;2023-07-29T11:04:59;13.48;;;2.08;;
35917;SDS011;22011;59.912;30.300;2023-07-29T11:07:32;11.52;;;2.35;;
35917;SDS011;22011;59.912;30.300;2023-07-29T11:10:11;7.15;;;2.35;;
35917;SDS011;22011;59.912;30.300;2023-07-29T11:12:40;5.35;;;2.50;;
35917;SDS011;22011;59.912;30.300;2023-07-29T11:15:12;6.03;;;2.35;;
35917;SDS011;22011;59.912;30.300;2023-07-29T11:17:43;8.45;;;2.25;;
35917;SDS011;22011;59.912;30.300;2023-07-29T11:20:12;8.18;;;2.83;;
35917;SDS011;22011;59.912;30.300;2023-07-29T11:22:41;19.77;;;4.35;;
35917;SDS011;22011;59.912;30.300;2023-07-29T11:25:10;8.63;;;2.85;;
35917;SDS011;22011;59.912;30.300;2023-07-29T11:27:38;11.60;;;2.15;;
35917;SDS011;22011;59.912;30.300;2023-07-29T11:30:07;13.40;;;4.55;;
35917;SDS011;22011;59.912;30.300;2023-07-29T11:32:35;4.38;;;3.28;;
35917;SDS011;22011;59.912;30.300;2023-07-29T11:35:06;10.77;;;3.15;;
35917;SDS011;22011;59.912;30.300;2023-07-29T11:37:36;8.05;;;2.45;;
35917;SDS011;22011;59.912;30.300;2023-07-29T11:40:05;9.83;;;3.57;;
35917;SDS011;22011;59.912;30.300;2023-07-29T11:42:34;10.02;;;2.80;;
35917;SDS011;22011;59.912;30.300;2023-07-29T11:45:03;4.32;;;2.00;;
35917;SDS011;22011;59.912;30.300;2023-07-29T11:47:32;5.45;;;1.85;;
35917;SDS011;22011;59.912;30.300;2023-07-29T11:50:03;7.72;;;2.55;;
35917;SDS011;22011;59.912;30.300;2023-07-29T11:52:33;9.93;;;2.80;;
35917;SDS011;22011;59.912;30.300;2023-07-29T11:55:01;19.23;;;2.72;;
35917;SDS011;22011;59.912;30.300;2023-07-29T11:57:29;12.75;;;2.55;;
35917;SDS011;22011;59.912;30.300;2023-07-29T11:59:58;14.18;;;2.92;;
35917;SDS011;22011;59.912;30.300;2023-07-29T12:02:26;5.95;;;2.28;;
35917;SDS011;22011;59.912;30.300;2023-07-29T12:04:54;14.95;;;3.10;;
35917;SDS011;22011;59.912;30.300;2023-07-29T12:07:23;4.75;;;1.60;;
35917;SDS011;22011;59.912;30.300;2023-07-29T12:09:52;8.27;;;2.10;;
35917;SDS011;22011;59.912;30.300;2023-07-29T12:12:19;4.88;;;2.08;;
35917;SDS011;22011;59.912;30.300;2023-07-29T12:14:49;9.60;;;2.08;;
35917;SDS011;22011;59.912;30.300;2023-07-29T12:17:17;7.82;;;1.90;;
35917;SDS011;22011;59.912;30.300;2023-07-29T12:19:45;4.22;;;1.70;;
35917;SDS011;22011;59.912;30.300;2023-07-29T12:22:17;2.70;;;1.52;;
35917;SDS011;22011;59.912;30.300;2023-07-29T12:24:45;4.28;;;1.80;;
35917;SDS011;22011;59.912;30.300;2023-07-29T12:27:14;10.93;;;2.53;;
35917;SDS011;22011;59.912;30.300;2023-07-29T12:29:42;8.27;;;2.05;;
35917;SDS011;22011;59.912;30.300;2023-07-29T12:32:12;5.85;;;2.30;;
35917;SDS011;22011;59.912;30.300;2023-07-29T12:34:40;4.53;;;2.00;;
35917;SDS011;22011;59.912;30.300;2023-07-29T12:37:07;5.25;;;1.63;;
35917;SDS011;22011;59.912;30.300;2023-07-29T12:39:39;4.30;;;1.45;;
35917;SDS011;22011;59.912;30.300;2023-07-29T12:42:07;11.10;;;2.15;;
35917;SDS011;22011;59.912;30.300;2023-07-29T12:44:37;3.72;;;1.80;;
35917;SDS011;22011;59.912;30.300;2023-07-29T12:47:05;2.10;;;1.70;;
35917;SDS011;22011;59.912;30.300;2023-07-29T12:49:34;4.00;;;1.83;;
35917;SDS011;22011;59.912;30.300;2023-07-29T12:52:02;5.10;;;2.00;;
35917;SDS011;22011;59.912;30.300;2023-07-29T12:54:30;3.55;;;1.95;;
35917;SDS011;22011;59.912;30.300;2023-07-29T12:56:57;7.20;;;2.45;;
35917;SDS011;22011;59.912;30.300;2023-07-29T12:59:25;3.00;;;2.47;;
35917;SDS011;22011;59.912;30.300;2023-07-29T13:01:54;3.97;;;1.88;;
35917;SDS011;22011;59.912;30.300;2023-07-29T13:04:21;3.03;;;2.53;;
35917;SDS011;22011;59.912;30.300;2023-07-29T13:06:49;5.00;;;2.00;;
35917;SDS011;22011;59.912;30.300;2023-07-29T13:09:17;5.40;;;2.20;;
35917;SDS011;22011;59.912;30.300;2023-07-29T13:11:44;7.85;;;1.92;;
35917;SDS011;22011;59.912;30.300;2023-07-29T13:14:12;5.57;;;2.40;;
35917;SDS011;22011;59.912;30.300;2023-07-29T13:16:39;7.63;;;2.22;;
35917;SDS011;22011;59.912;30.300;2023-07-29T13:19:08;2.60;;;1.42;;
35917;SDS011;22011;59.912;30.300;2023-07-29T13:21:36;1.70;;;1.23;;
35917;SDS011;22011;59.912;30.300;2023-07-29T13:24:04;5.75;;;1.40;;
35917;SDS011;22011;59.912;30.300;2023-07-29T13:26:31;8.90;;;1.35;;
35917;SDS011;22011;59.912;30.300;2023-07-29T13:28:59;12.52;;;1.30;;
35917;SDS011;22011;59.912;30.300;2023-07-29T13:31:26;14.40;;;2.95;;
35917;SDS011;22011;59.912;30.300;2023-07-29T13:33:54;5.38;;;2.33;;
35917;SDS011;22011;59.912;30.300;2023-07-29T13:36:23;14.27;;;2.05;;
35917;SDS011;22011;59.912;30.300;2023-07-29T13:38:50;6.10;;;1.87;;
35917;SDS011;22011;59.912;30.300;2023-07-29T13:41:18;7.70;;;2.25;;
35917;SDS011;22011;59.912;30.300;2023-07-29T13:43:46;12.75;;;2.60;;
35917;SDS011;22011;59.912;30.300;2023-07-29T13:46:13;44.70;;;14.35;;
35917;SDS011;22011;59.912;30.300;2023-07-29T13:48:41;30.23;;;12.23;;
35917;SDS011;22011;59.912;30.300;2023-07-29T13:51:08;12.13;;;4.60;;
35917;SDS011;22011;59.912;30.300;2023-07-29T13:53:37;7.38;;;2.45;;
35917;SDS011;22011;59.912;30.300;2023-07-29T13:56:05;12.20;;;1.60;;
35917;SDS011;22011;59.912;30.300;2023-07-29T13:58:32;4.57;;;1.52;;
35917;SDS011;22011;59.912;30.300;2023-07-29T14:01:00;1.55;;;1.10;;
35917;SDS011;22011;59.912;30.300;2023-07-29T14:03:28;6.68;;;0.90;;
35917;SDS011;22011;59.912;30.300;2023-07-29T14:05:55;2.70;;;0.93;;
35917;SDS011;22011;59.912;30.300;2023-07-29T14:08:23;4.53;;;1.30;;
35917;SDS011;22011;59.912;30.300;2023-07-29T14:10:52;25.95;;;8.85;;
35917;SDS011;22011;59.912;30.300;2023-07-29T14:13:20;6.17;;;2.23;;
35917;SDS011;22011;59.912;30.300;2023-07-29T14:15:47;10.80;;;5.57;;
35917;SDS011;22011;59.912;30.300;2023-07-29T14:18:15;11.20;;;4.07;;
35917;SDS011;22011;59.912;30.300;2023-07-29T14:20:42;9.13;;;7.13;;
35917;SDS011;22011;59.912;30.300;2023-07-29T14:23:10;5.63;;;4.95;;
35917;SDS011;22011;59.912;30.300;2023-07-29T14:25:38;3.67;;;1.83;;
35917;SDS011;22011;59.912;30.300;2023-07-29T14:28:07;2.85;;;1.33;;
35917;SDS011;22011;59.912;30.300;2023-07-29T14:30:34;24.93;;;11.47;;
35917;SDS011;22011;59.912;30.300;2023-07-29T14:33:03;21.60;;;15.93;;
35917;SDS011;22011;59.912;30.300;2023-07-29T14:35:32;5.00;;;3.22;;
35917;SDS011;22011;59.912;30.300;2023-07-29T14:37:59;11.60;;;3.50;;
35917;SDS011;22011;59.912;30.300;2023-07-29T14:40:27;7.35;;;4.28;;
35917;SDS011;22011;59.912;30.300;2023-07-29T14:42:55;8.98;;;2.40;;
35917;SDS011;22011;59.912;30.300;2023-07-29T14:45:24;12.63;;;1.90;;
35917;SDS011;22011;59.912;30.300;2023-07-29T14:47:52;12.20;;;2.87;;
35917;SDS011;22011;59.912;30.300;2023-07-29T14:50:19;10.48;;;5.93;;